createdAt,value
2017-11-03T00:00:58.416Z,42.83
2017-11-03T00:02:05.534Z,43.53
2017-11-03T00:03:10.986Z,44.53
2017-11-03T00:04:16.529Z,43.58
2017-11-03T00:05:21.928Z,39.30
2017-11-03T00:06:27.441Z,39.53
2017-11-03T00:07:33.345Z,40.20
2017-11-03T00:08:38.764Z,39.70
2017-11-03T00:09:44.204Z,40.05
2017-11-03T00:10:49.702Z,37.20
2017-11-03T00:11:56.204Z,40.30
2017-11-03T00:13:01.651Z,39.20
2017-11-03T00:14:07.538Z,37.33
2017-11-03T00:15:14.085Z,38.85
2017-11-03T00:16:19.479Z,39.30
2017-11-03T00:17:24.922Z,38.45
2017-11-03T00:18:30.330Z,39.20
2017-11-03T00:19:35.773Z,37.60
2017-11-03T00:20:41.214Z,37.93
2017-11-03T00:21:46.680Z,37.83
2017-11-03T00:22:52.048Z,39.83
2017-11-03T00:23:57.534Z,41.03
2017-11-03T00:25:03.194Z,39.17
2017-11-03T00:26:08.627Z,41.17
2017-11-03T00:27:16.003Z,39.55
2017-11-03T00:28:21.666Z,39.05
2017-11-03T00:29:27.182Z,40.10
2017-11-03T00:30:33.068Z,40.38
2017-11-03T00:31:39.530Z,39.53
2017-11-03T00:32:44.985Z,39.88
2017-11-03T00:33:50.416Z,38.58
2017-11-03T00:34:55.854Z,41.72
2017-11-03T00:36:01.376Z,40.88
2017-11-03T00:37:06.992Z,40.55
2017-11-03T00:38:12.434Z,41.13
2017-11-03T00:39:17.877Z,42.83
2017-11-03T00:40:23.387Z,42.58
2017-11-03T00:41:29.179Z,40.33
2017-11-03T00:42:34.687Z,42.50
2017-11-03T00:43:40.133Z,40.30
2017-11-03T00:44:45.541Z,41.72
2017-11-03T00:45:50.944Z,42.28
2017-11-03T00:46:56.389Z,43.43
2017-11-03T00:48:01.820Z,44.90
2017-11-03T00:49:07.251Z,44.20
2017-11-03T00:50:12.668Z,43.20
2017-11-03T00:51:18.085Z,42.67
2017-11-03T00:52:23.736Z,50.60
2017-11-03T00:53:29.140Z,69.43
2017-11-03T00:54:34.611Z,52.70
2017-11-03T00:55:40.082Z,47.28
2017-11-03T00:56:45.526Z,42.77
2017-11-03T00:57:51.183Z,39.40
2017-11-03T00:58:56.667Z,39.20
2017-11-03T01:00:02.428Z,38.10
2017-11-03T01:01:07.842Z,39.50
2017-11-03T01:02:13.230Z,39.07
2017-11-03T01:03:18.690Z,38.72
2017-11-03T01:04:24.167Z,36.70
2017-11-03T01:05:29.574Z,37.90
2017-11-03T01:06:35.030Z,37.38
2017-11-03T01:07:40.474Z,38.85
2017-11-03T01:08:46.500Z,38.30
2017-11-03T01:09:52.407Z,40.15
2017-11-03T01:10:58.677Z,38.45
2017-11-03T01:12:04.599Z,40.00
2017-11-03T01:13:10.033Z,36.90
2017-11-03T01:14:15.657Z,37.60
2017-11-03T01:15:21.057Z,38.25
2017-11-03T01:16:28.302Z,37.25
2017-11-03T01:17:36.611Z,37.72
2017-11-03T01:18:44.786Z,39.28
2017-11-03T01:19:52.269Z,38.55
2017-11-03T01:20:57.938Z,37.95
2017-11-03T01:22:03.792Z,38.55
2017-11-03T01:23:09.830Z,37.20
2017-11-03T01:24:15.405Z,39.60
2017-11-03T01:25:20.852Z,37.47
2017-11-03T01:26:26.754Z,36.87
2017-11-03T01:27:32.666Z,37.13
2017-11-03T01:28:38.091Z,36.72
2017-11-03T01:29:43.656Z,37.90
2017-11-03T01:30:49.462Z,37.05
2017-11-03T01:31:54.906Z,38.23
2017-11-03T01:33:00.420Z,37.30
2017-11-03T01:34:07.341Z,39.33
2017-11-03T01:35:14.654Z,38.45
2017-11-03T01:36:20.849Z,35.03
2017-11-03T01:37:27.035Z,35.63
2017-11-03T01:38:33.315Z,36.20
2017-11-03T01:39:38.789Z,35.53
2017-11-03T01:40:46.504Z,35.17
2017-11-03T01:41:52.854Z,36.13
2017-11-03T01:42:59.319Z,35.43
2017-11-03T01:44:06.624Z,36.47
2017-11-03T01:45:12.958Z,33.88
2017-11-03T01:46:19.549Z,34.15
2017-11-03T01:47:25.307Z,35.30
2017-11-03T01:48:31.737Z,35.97
2017-11-03T01:49:38.085Z,36.03
2017-11-03T01:50:45.694Z,35.80
2017-11-03T01:51:52.365Z,35.80
2017-11-03T01:52:59.356Z,36.22
2017-11-03T01:54:05.165Z,36.10
2017-11-03T01:55:10.704Z,36.70
2017-11-03T01:56:16.319Z,36.83
2017-11-03T01:57:22.295Z,37.08
2017-11-03T01:58:27.821Z,36.63
2017-11-03T01:59:33.731Z,37.65
2017-11-03T02:00:39.492Z,38.30
2017-11-03T02:01:44.927Z,38.90
2017-11-03T02:02:50.423Z,36.22
2017-11-03T02:03:56.158Z,36.55
2017-11-03T02:05:01.580Z,37.83
2017-11-03T02:06:07.173Z,36.97
2017-11-03T02:07:12.641Z,37.25
2017-11-03T02:08:18.438Z,38.28
2017-11-03T02:09:24.648Z,38.55
2017-11-03T02:10:30.113Z,37.65
2017-11-03T02:11:35.568Z,37.25
2017-11-03T02:12:40.963Z,36.90
2017-11-03T02:13:46.343Z,37.03
2017-11-03T02:14:51.868Z,36.97
2017-11-03T02:15:57.622Z,36.53
2017-11-03T02:17:03.081Z,36.47
2017-11-03T02:18:09.096Z,37.78
2017-11-03T02:19:14.702Z,36.88
2017-11-03T02:20:24.531Z,36.55
2017-11-03T02:21:30.600Z,37.38
2017-11-03T02:22:36.094Z,36.58
2017-11-03T02:23:41.516Z,37.20
2017-11-03T02:24:46.984Z,33.88
2017-11-03T02:25:52.587Z,35.08
2017-11-03T02:26:58.067Z,35.78
2017-11-03T02:28:03.599Z,34.20
2017-11-03T02:29:09.108Z,35.50
2017-11-03T02:30:14.659Z,35.63
2017-11-03T02:31:20.425Z,36.20
2017-11-03T02:32:26.166Z,36.15
2017-11-03T02:33:31.937Z,35.58
2017-11-03T02:34:37.456Z,35.92
2017-11-03T02:35:42.837Z,35.45
2017-11-03T02:36:48.708Z,35.58
2017-11-03T02:37:54.303Z,34.38
2017-11-03T02:38:59.761Z,33.75
2017-11-03T02:40:05.207Z,34.22
2017-11-03T02:41:10.890Z,35.57
2017-11-03T02:42:16.396Z,34.95
2017-11-03T02:43:22.307Z,35.30
2017-11-03T02:44:28.080Z,36.95
2017-11-03T02:45:33.654Z,36.63
2017-11-03T02:46:39.057Z,36.30
2017-11-03T02:47:44.647Z,35.95
2017-11-03T02:48:50.473Z,34.90
2017-11-03T02:49:55.897Z,34.83
2017-11-03T02:51:01.578Z,34.42
2017-11-03T02:52:07.810Z,35.15
2017-11-03T02:53:13.224Z,34.43
2017-11-03T02:54:19.132Z,35.42
2017-11-03T02:55:25.295Z,35.47
2017-11-03T02:56:31.677Z,34.83
2017-11-03T02:57:37.492Z,35.33
2017-11-03T02:58:42.938Z,34.83
2017-11-03T02:59:48.499Z,34.58
2017-11-03T03:00:53.961Z,34.88
2017-11-03T03:01:59.392Z,36.60
2017-11-03T03:03:04.857Z,36.22
2017-11-03T03:04:10.275Z,37.13
2017-11-03T03:05:15.733Z,34.72
2017-11-03T03:06:21.199Z,37.83
2017-11-03T03:07:26.741Z,35.88
2017-11-03T03:08:32.201Z,35.10
2017-11-03T03:09:38.458Z,35.28
2017-11-03T03:10:45.233Z,34.10
2017-11-03T03:11:51.314Z,33.53
2017-11-03T03:12:57.470Z,35.30
2017-11-03T03:14:06.264Z,34.50
2017-11-03T03:15:13.023Z,35.80
2017-11-03T03:16:20.164Z,35.60
2017-11-03T03:17:26.488Z,36.33
2017-11-03T03:18:33.493Z,36.90
2017-11-03T03:19:40.086Z,36.25
2017-11-03T03:20:46.128Z,36.03
2017-11-03T03:21:52.817Z,36.15
2017-11-03T03:22:59.196Z,34.97
2017-11-03T03:24:05.427Z,35.78
2017-11-03T03:25:11.600Z,36.03
2017-11-03T03:26:18.349Z,35.38
2017-11-03T03:27:24.826Z,35.67
2017-11-03T03:28:30.904Z,35.70
2017-11-03T03:29:37.371Z,34.78
2017-11-03T03:30:43.063Z,37.78
2017-11-03T03:31:49.807Z,38.22
2017-11-03T03:32:57.635Z,34.80
2017-11-03T03:34:06.972Z,36.53
2017-11-03T03:35:13.620Z,36.38
2017-11-03T03:36:20.638Z,33.70
2017-11-03T03:37:28.394Z,35.05
2017-11-03T03:38:34.674Z,36.22
2017-11-03T03:39:41.215Z,35.60
2017-11-03T03:40:46.959Z,35.10
2017-11-03T03:41:53.216Z,35.40
2017-11-03T03:42:59.373Z,35.20
2017-11-03T03:44:05.590Z,35.28
2017-11-03T03:45:12.361Z,35.90
2017-11-03T03:46:17.968Z,35.60
2017-11-03T03:47:23.713Z,35.38
2017-11-03T03:48:29.228Z,34.13
2017-11-03T03:49:34.979Z,34.50
2017-11-03T03:50:41.203Z,35.63
2017-11-03T03:51:47.529Z,34.92
2017-11-03T03:52:54.100Z,35.13
2017-11-03T03:54:01.931Z,34.85
2017-11-03T03:55:07.801Z,35.90
2017-11-03T03:56:13.806Z,34.95
2017-11-03T03:57:19.851Z,35.67
2017-11-03T03:58:25.790Z,35.13
2017-11-03T03:59:31.772Z,33.95
2017-11-03T04:00:38.876Z,35.53
2017-11-03T04:01:44.859Z,35.60
2017-11-03T04:02:50.822Z,35.88
2017-11-03T04:03:56.819Z,37.00
2017-11-03T04:05:03.004Z,35.33
2017-11-03T04:06:09.032Z,34.55
2017-11-03T04:07:15.007Z,35.50
2017-11-03T04:08:20.913Z,35.17
2017-11-03T04:09:26.877Z,33.75
2017-11-03T04:10:33.220Z,35.38
2017-11-03T04:11:39.293Z,34.80
2017-11-03T04:12:45.319Z,35.78
2017-11-03T04:13:51.279Z,36.50
2017-11-03T04:14:57.194Z,35.10
2017-11-03T04:16:03.937Z,35.10
2017-11-03T04:17:10.092Z,36.58
2017-11-03T04:18:16.010Z,34.50
2017-11-03T04:19:22.364Z,33.72
2017-11-03T04:20:28.341Z,35.35
2017-11-03T04:21:35.421Z,35.70
2017-11-03T04:22:41.462Z,33.30
2017-11-03T04:23:47.467Z,33.47
2017-11-03T04:24:53.963Z,32.03
2017-11-03T04:26:00.235Z,33.20
2017-11-03T04:27:05.638Z,33.85
2017-11-03T04:28:11.148Z,33.40
2017-11-03T04:29:16.549Z,31.65
2017-11-03T04:30:21.909Z,31.77
2017-11-03T04:31:27.311Z,34.10
2017-11-03T04:32:33.309Z,33.85
2017-11-03T04:33:39.069Z,33.38
2017-11-03T04:34:44.728Z,33.55
2017-11-03T04:35:50.224Z,32.75
2017-11-03T04:36:55.695Z,32.30
2017-11-03T04:38:01.404Z,32.10
2017-11-03T04:39:06.961Z,32.35
2017-11-03T04:40:12.729Z,31.30
2017-11-03T04:41:18.223Z,31.17
2017-11-03T04:42:23.934Z,32.57
2017-11-03T04:43:29.402Z,33.28
2017-11-03T04:44:35.094Z,34.50
2017-11-03T04:45:40.844Z,32.35
2017-11-03T04:46:46.849Z,33.58
2017-11-03T04:47:52.258Z,32.23
2017-11-03T04:48:57.674Z,33.75
2017-11-03T04:50:03.116Z,33.92
2017-11-03T04:51:08.544Z,33.10
2017-11-03T04:52:14.456Z,34.10
2017-11-03T04:53:19.897Z,34.93
2017-11-03T04:54:28.335Z,34.10
2017-11-03T04:55:34.534Z,35.15
2017-11-03T04:56:40.745Z,33.80
2017-11-03T04:57:48.071Z,33.83
2017-11-03T04:58:54.092Z,35.70
2017-11-03T05:00:00.311Z,34.53
2017-11-03T05:01:06.990Z,33.08
2017-11-03T05:02:14.351Z,33.97
2017-11-03T05:03:20.801Z,32.58
2017-11-03T05:04:26.417Z,32.10
2017-11-03T05:05:32.362Z,32.72
2017-11-03T05:06:37.822Z,31.85
2017-11-03T05:07:43.231Z,32.92
2017-11-03T05:08:48.651Z,33.05
2017-11-03T05:09:54.039Z,32.13
2017-11-03T05:10:59.498Z,33.33
2017-11-03T05:12:04.930Z,31.20
2017-11-03T05:13:10.349Z,33.83
2017-11-03T05:14:15.896Z,31.62
2017-11-03T05:15:21.311Z,32.67
2017-11-03T05:16:27.185Z,31.83
2017-11-03T05:17:32.699Z,33.70
2017-11-03T05:18:38.101Z,31.52
2017-11-03T05:19:43.644Z,31.83
2017-11-03T05:20:49.051Z,32.08
2017-11-03T05:21:54.434Z,31.65
2017-11-03T05:23:00.159Z,31.33
2017-11-03T05:24:05.685Z,30.60
2017-11-03T05:25:11.427Z,31.42
2017-11-03T05:26:16.864Z,32.20
2017-11-03T05:27:22.744Z,33.58
2017-11-03T05:28:28.153Z,31.93
2017-11-03T05:29:33.621Z,33.60
2017-11-03T05:30:39.110Z,32.15
2017-11-03T05:31:44.521Z,31.73
2017-11-03T05:32:50.250Z,31.50
2017-11-03T05:33:56.530Z,31.70
2017-11-03T05:35:02.333Z,31.73
2017-11-03T05:36:07.753Z,31.98
2017-11-03T05:37:13.230Z,31.37
2017-11-03T05:38:18.687Z,30.50
2017-11-03T05:39:24.118Z,32.83
2017-11-03T05:40:29.615Z,33.30
2017-11-03T05:41:35.094Z,30.92
2017-11-03T05:42:40.519Z,31.45
2017-11-03T05:43:45.923Z,32.22
2017-11-03T05:44:51.371Z,31.27
2017-11-03T05:45:56.823Z,32.63
2017-11-03T05:47:02.323Z,30.80
2017-11-03T05:48:07.815Z,31.37
2017-11-03T05:49:13.474Z,32.85
2017-11-03T05:50:18.920Z,31.40
2017-11-03T05:51:24.475Z,30.58
2017-11-03T05:52:29.919Z,31.42
2017-11-03T05:53:35.619Z,32.50
2017-11-03T05:54:41.157Z,31.23
2017-11-03T05:55:46.940Z,31.20
2017-11-03T05:56:52.374Z,30.75
2017-11-03T05:57:57.803Z,31.30
2017-11-03T05:59:03.234Z,30.77
2017-11-03T06:00:08.686Z,31.33
2017-11-03T06:01:14.070Z,31.27
2017-11-03T06:02:19.597Z,30.12
2017-11-03T06:03:25.039Z,31.35
2017-11-03T06:04:30.543Z,31.67
2017-11-03T06:05:35.978Z,32.45
2017-11-03T06:06:41.800Z,33.30
2017-11-03T06:07:47.270Z,32.08
2017-11-03T06:08:52.734Z,43.67
2017-11-03T06:09:58.310Z,36.80
2017-11-03T06:11:03.722Z,34.47
2017-11-03T06:12:09.224Z,32.05
2017-11-03T06:13:14.678Z,30.73
2017-11-03T06:14:20.115Z,31.20
2017-11-03T06:15:25.712Z,31.33
2017-11-03T06:16:31.135Z,32.20
2017-11-03T06:17:59.187Z,30.85
2017-11-03T06:19:04.797Z,32.88
2017-11-03T06:20:10.327Z,32.20
2017-11-03T06:21:15.769Z,31.48
2017-11-03T06:22:21.198Z,31.67
2017-11-03T06:23:26.591Z,32.00
2017-11-03T06:24:32.080Z,33.78
2017-11-03T06:25:37.533Z,31.52
2017-11-03T06:26:42.958Z,31.90
2017-11-03T06:27:48.374Z,31.50
2017-11-03T06:28:54.212Z,32.72
2017-11-03T06:29:59.677Z,31.17
2017-11-03T06:31:05.198Z,30.70
2017-11-03T06:32:10.884Z,31.75
2017-11-03T06:33:16.318Z,30.92
2017-11-03T06:34:21.771Z,30.70
2017-11-03T06:35:27.206Z,31.35
2017-11-03T06:36:32.660Z,32.80
2017-11-03T06:37:38.107Z,34.38
2017-11-03T06:38:44.464Z,36.60
2017-11-03T06:39:50.355Z,32.85
2017-11-03T06:40:55.917Z,34.13
2017-11-03T06:42:01.381Z,32.33
2017-11-03T06:43:06.923Z,32.47
2017-11-03T06:44:12.395Z,33.03
2017-11-03T06:45:17.850Z,32.50
2017-11-03T06:46:23.299Z,32.45
2017-11-03T06:47:28.926Z,31.85
2017-11-03T06:48:34.426Z,30.25
2017-11-03T06:49:39.939Z,31.08
2017-11-03T06:50:45.927Z,32.25
2017-11-03T06:51:51.450Z,33.03
2017-11-03T06:52:56.935Z,30.90
2017-11-03T06:54:02.380Z,32.55
2017-11-03T06:55:07.839Z,32.35
2017-11-03T06:56:14.519Z,32.38
2017-11-03T06:57:20.077Z,32.42
2017-11-03T06:58:25.523Z,31.48
2017-11-03T06:59:30.945Z,30.90
2017-11-03T07:00:36.476Z,31.08
2017-11-03T07:01:41.909Z,31.77
2017-11-03T07:02:47.409Z,31.80
2017-11-03T07:03:52.915Z,32.50
2017-11-03T07:04:58.358Z,31.70
2017-11-03T07:06:03.768Z,31.20
2017-11-03T07:07:09.558Z,30.77
2017-11-03T07:08:15.045Z,34.10
2017-11-03T07:09:20.578Z,35.28
2017-11-03T07:10:26.072Z,31.83
2017-11-03T07:11:31.526Z,32.05
2017-11-03T07:12:37.041Z,31.55
2017-11-03T07:13:42.572Z,32.55
2017-11-03T07:14:47.993Z,30.98
2017-11-03T07:15:53.623Z,31.00
2017-11-03T07:16:59.123Z,30.23
2017-11-03T07:18:04.633Z,30.02
2017-11-03T07:19:10.607Z,30.25
2017-11-03T07:20:16.128Z,28.10
2017-11-03T07:21:21.609Z,30.70
2017-11-03T07:22:27.096Z,30.45
2017-11-03T07:23:33.132Z,29.80
2017-11-03T07:24:38.879Z,31.12
2017-11-03T07:25:44.358Z,30.00
2017-11-03T07:26:49.835Z,29.73
2017-11-03T07:27:55.301Z,31.27
2017-11-03T07:29:00.761Z,31.60
2017-11-03T07:30:06.239Z,31.90
2017-11-03T07:31:11.722Z,30.55
2017-11-03T07:32:17.210Z,30.95
2017-11-03T07:33:22.743Z,30.77
2017-11-03T07:34:28.799Z,30.40
2017-11-03T07:35:34.748Z,29.20
2017-11-03T07:36:40.207Z,29.87
2017-11-03T07:37:45.791Z,28.52
2017-11-03T07:38:51.430Z,28.60
2017-11-03T07:39:57.093Z,30.73
2017-11-03T07:41:02.497Z,28.35
2017-11-03T07:42:07.945Z,30.23
2017-11-03T07:43:13.428Z,30.52
2017-11-03T07:44:18.936Z,30.25
2017-11-03T07:45:24.361Z,30.30
2017-11-03T07:46:29.799Z,29.95
2017-11-03T07:47:35.239Z,30.05
2017-11-03T07:48:40.766Z,29.70
2017-11-03T07:49:46.264Z,30.25
2017-11-03T07:50:51.706Z,30.80
2017-11-03T07:51:57.407Z,29.70
2017-11-03T07:53:02.858Z,30.10
2017-11-03T07:54:08.369Z,28.58
2017-11-03T07:55:13.826Z,28.80
2017-11-03T07:56:19.370Z,28.95
2017-11-03T07:57:25.162Z,28.67
2017-11-03T07:58:30.719Z,28.23
2017-11-03T07:59:36.163Z,28.10
2017-11-03T08:00:41.739Z,29.45
2017-11-03T08:01:47.183Z,26.65
2017-11-03T08:02:52.771Z,27.33
2017-11-03T08:03:58.720Z,27.17
2017-11-03T08:05:04.214Z,27.40
2017-11-03T08:06:09.699Z,27.60
2017-11-03T08:07:15.120Z,28.77
2017-11-03T08:08:20.734Z,29.35
2017-11-03T08:09:26.223Z,28.10
2017-11-03T08:10:31.664Z,28.15
2017-11-03T08:11:37.196Z,28.10
2017-11-03T08:14:18.730Z,29.33
2017-11-03T08:15:24.274Z,30.13
2017-11-03T08:16:30.005Z,29.65
2017-11-03T08:17:36.220Z,28.40
2017-11-03T08:18:41.839Z,30.23
2017-11-03T08:19:47.922Z,27.83
2017-11-03T08:20:53.441Z,30.48
2017-11-03T08:21:58.914Z,29.75
2017-11-03T08:23:04.359Z,32.28
2017-11-03T08:24:10.010Z,30.60
2017-11-03T08:25:15.838Z,33.70
2017-11-03T08:26:21.329Z,42.95
2017-11-03T08:27:26.843Z,42.60
2017-11-03T08:28:32.383Z,41.90
2017-11-03T08:29:38.047Z,42.38
2017-11-03T08:30:43.728Z,41.92
2017-11-03T08:31:49.244Z,44.65
2017-11-03T08:32:54.750Z,44.75
2017-11-03T08:34:00.366Z,42.88
2017-11-03T08:35:05.927Z,44.58
2017-11-03T08:36:11.656Z,37.88
2017-11-03T08:37:17.141Z,37.00
2017-11-03T08:38:22.754Z,34.65
2017-11-03T08:39:29.332Z,36.90
2017-11-03T08:40:36.175Z,31.92
2017-11-03T08:41:42.755Z,30.83
2017-11-03T08:42:48.835Z,32.20
2017-11-03T08:43:54.349Z,30.23
2017-11-03T08:44:59.870Z,31.40
2017-11-03T08:46:06.131Z,33.75
2017-11-03T08:47:12.107Z,31.50
2017-11-03T08:48:18.894Z,32.05
2017-11-03T08:49:25.774Z,31.03
2017-11-03T08:50:33.588Z,33.40
2017-11-03T08:51:40.229Z,30.33
2017-11-03T08:52:46.251Z,28.83
2017-11-03T08:53:52.700Z,31.05
2017-11-03T08:54:58.857Z,30.25
2017-11-03T08:56:05.317Z,30.37
2017-11-03T08:57:13.969Z,31.73
2017-11-03T08:58:22.620Z,32.33
2017-11-03T08:59:29.678Z,30.70
2017-11-03T09:00:35.962Z,30.05
2017-11-03T09:01:43.847Z,29.02
2017-11-03T09:02:49.778Z,28.27
2017-11-03T09:03:55.330Z,30.48
2017-11-03T09:05:01.640Z,27.50
2017-11-03T09:06:08.762Z,28.02
2017-11-03T09:07:15.079Z,26.77
2017-11-03T09:08:21.406Z,28.83
2017-11-03T09:09:28.129Z,29.05
2017-11-03T09:10:34.364Z,29.73
2017-11-03T09:11:40.688Z,27.40
2017-11-03T09:12:46.659Z,28.00
2017-11-03T09:13:52.590Z,29.17
2017-11-03T09:14:59.698Z,27.75
2017-11-03T09:16:05.368Z,29.00
2017-11-03T09:17:11.802Z,28.70
2017-11-03T09:18:17.944Z,28.70
2017-11-03T09:19:24.832Z,29.00
2017-11-03T09:20:31.025Z,29.52
2017-11-03T09:21:36.566Z,28.23
2017-11-03T09:22:42.145Z,29.50
2017-11-03T09:23:47.792Z,30.85
2017-11-03T09:24:54.333Z,28.40
2017-11-03T09:26:00.199Z,29.00
2017-11-03T09:27:05.729Z,28.65
2017-11-03T09:28:11.274Z,27.98
2017-11-03T09:29:16.687Z,29.35
2017-11-03T09:30:22.352Z,29.42
2017-11-03T09:31:27.888Z,27.75
2017-11-03T09:32:33.611Z,29.30
2017-11-03T09:33:39.099Z,30.65
2017-11-03T09:34:44.583Z,29.77
2017-11-03T09:35:50.364Z,28.42
2017-11-03T09:36:55.913Z,29.92
2017-11-03T09:38:01.831Z,28.40
2017-11-03T09:39:07.391Z,29.30
2017-11-03T09:40:13.413Z,30.67
2017-11-03T09:41:18.902Z,27.30
2017-11-03T09:42:24.406Z,29.10
2017-11-03T09:43:29.915Z,28.27
2017-11-03T09:44:35.597Z,29.08
2017-11-03T09:45:41.119Z,28.23
2017-11-03T09:46:46.828Z,28.80
2017-11-03T09:47:52.412Z,29.35
2017-11-03T09:48:58.258Z,29.85
2017-11-03T09:50:03.752Z,30.03
2017-11-03T09:51:09.437Z,29.92
2017-11-03T09:52:14.949Z,28.92
2017-11-03T09:53:20.728Z,28.62
2017-11-03T09:54:26.333Z,30.52
2017-11-03T09:55:33.328Z,30.95
2017-11-03T09:56:39.481Z,30.20
2017-11-03T09:57:45.022Z,28.90
2017-11-03T09:58:50.510Z,29.60
2017-11-03T09:59:56.458Z,29.17
2017-11-03T10:01:01.987Z,26.67
2017-11-03T10:02:07.464Z,28.40
2017-11-03T10:03:12.984Z,31.05
2017-11-03T10:04:18.484Z,29.08
2017-11-03T10:05:23.960Z,27.37
2017-11-03T10:06:29.469Z,28.30
2017-11-03T10:07:34.932Z,28.55
2017-11-03T10:08:40.465Z,29.25
2017-11-03T10:09:46.020Z,28.80
2017-11-03T10:10:51.870Z,28.20
2017-11-03T10:11:57.743Z,29.50
2017-11-03T10:13:03.322Z,27.80
2017-11-03T10:14:09.364Z,27.35
2017-11-03T10:15:14.907Z,29.77
2017-11-03T10:16:20.843Z,27.58
2017-11-03T10:17:26.865Z,29.05
2017-11-03T10:18:32.404Z,27.50
2017-11-03T10:19:37.939Z,28.95
2017-11-03T10:20:43.861Z,29.08
2017-11-03T10:21:49.772Z,29.15
2017-11-03T10:22:55.497Z,27.67
2017-11-03T10:24:01.153Z,29.75
2017-11-03T10:25:07.018Z,30.30
2017-11-03T10:26:14.730Z,31.30
2017-11-03T10:27:21.075Z,31.02
2017-11-03T10:28:27.165Z,31.17
2017-11-03T10:29:32.988Z,30.95
2017-11-03T10:30:38.686Z,30.65
2017-11-03T10:31:44.291Z,28.23
2017-11-03T10:32:49.845Z,30.40
2017-11-03T10:33:55.518Z,29.60
2017-11-03T10:35:01.061Z,31.00
2017-11-03T10:36:06.570Z,29.02
2017-11-03T10:37:12.096Z,29.63
2017-11-03T10:38:17.596Z,32.58
2017-11-03T10:39:23.120Z,32.00
2017-11-03T10:40:28.665Z,30.35
2017-11-03T10:41:34.206Z,30.63
2017-11-03T10:42:41.506Z,28.52
2017-11-03T10:43:47.045Z,29.87
2017-11-03T10:44:52.639Z,29.00
2017-11-03T10:45:58.262Z,28.58
2017-11-03T10:47:05.442Z,27.98
2017-11-03T10:48:11.037Z,28.10
2017-11-03T10:49:16.951Z,27.40
2017-11-03T10:50:22.671Z,36.75
2017-11-03T10:51:28.285Z,32.83
2017-11-03T10:52:33.921Z,49.10
2017-11-03T10:53:39.457Z,37.53
2017-11-03T10:54:45.638Z,32.67
2017-11-03T10:55:51.143Z,29.42
2017-11-03T10:56:57.132Z,27.50
2017-11-03T10:58:02.687Z,27.42
2017-11-03T10:59:08.146Z,27.23
2017-11-03T11:00:14.444Z,29.55
2017-11-03T11:01:20.018Z,27.60
2017-11-03T11:02:26.541Z,26.27
2017-11-03T11:03:32.177Z,26.17
2017-11-03T11:04:38.444Z,29.10
2017-11-03T11:05:44.811Z,26.95
2017-11-03T11:06:50.775Z,27.25
2017-11-03T11:07:58.892Z,25.60
2017-11-03T11:09:08.742Z,25.73
2017-11-03T11:10:15.722Z,25.08
2017-11-03T11:11:25.918Z,24.73
2017-11-03T11:12:32.696Z,26.05
2017-11-03T11:13:40.028Z,26.62
2017-11-03T11:14:47.130Z,25.27
2017-11-03T11:16:12.474Z,25.60
2017-11-03T11:17:20.660Z,23.80
2017-11-03T11:18:27.815Z,21.92
2017-11-03T11:19:35.175Z,20.67
2017-11-03T11:20:44.111Z,37.58
2017-11-03T11:21:53.521Z,27.40
2017-11-03T11:23:16.182Z,21.62
2017-11-03T11:24:27.554Z,21.48
2017-11-03T11:25:33.689Z,23.40
2017-11-03T11:26:40.061Z,21.40
2017-11-03T11:27:46.621Z,20.77
2017-11-03T11:28:53.856Z,20.65
2017-11-03T11:30:00.472Z,20.15
2017-11-03T11:31:06.299Z,20.95
2017-11-03T11:32:11.867Z,19.77
2017-11-03T11:33:17.430Z,19.30
2017-11-03T11:34:23.074Z,19.92
2017-11-03T11:35:28.662Z,19.30
2017-11-03T11:36:34.247Z,18.20
2017-11-03T11:37:40.545Z,17.30
2017-11-03T11:38:49.469Z,16.87
2017-11-03T11:39:55.885Z,16.30
2017-11-03T11:41:01.687Z,17.10
2017-11-03T11:42:07.347Z,16.60
2017-11-03T11:43:13.366Z,17.40
2017-11-03T11:44:19.659Z,16.92
2017-11-03T11:45:25.385Z,18.40
2017-11-03T11:46:30.952Z,16.27
2017-11-03T11:47:36.634Z,18.08
2017-11-03T11:48:42.166Z,17.98
2017-11-03T11:49:48.641Z,17.35
2017-11-03T11:50:57.251Z,16.90
2017-11-03T11:52:02.968Z,30.02
2017-11-03T11:53:08.625Z,19.83
2017-11-03T11:54:14.157Z,17.83
2017-11-03T11:55:20.082Z,16.50
2017-11-03T11:56:25.750Z,16.87
2017-11-03T11:57:31.776Z,17.52
2017-11-03T11:58:37.430Z,16.65
2017-11-03T11:59:43.375Z,16.62
2017-11-03T12:00:48.954Z,15.90
2017-11-03T12:01:54.775Z,16.50
2017-11-03T12:03:00.700Z,15.20
2017-11-03T12:04:06.451Z,16.12
2017-11-03T12:05:12.035Z,16.42
2017-11-03T12:06:17.664Z,15.05
2017-11-03T12:07:25.209Z,13.75
2017-11-03T12:08:31.140Z,13.40
2017-11-03T12:09:36.674Z,13.77
2017-11-03T12:10:42.221Z,11.90
2017-11-03T12:11:47.804Z,13.27
2017-11-03T12:12:54.312Z,13.90
2017-11-03T12:13:59.959Z,13.27
2017-11-03T12:15:05.567Z,13.48
2017-11-03T12:16:11.810Z,15.23
2017-11-03T12:17:18.653Z,13.90
2017-11-03T12:18:24.207Z,14.05
2017-11-03T12:19:29.670Z,12.27
2017-11-03T12:20:37.367Z,12.30
2017-11-03T12:21:43.686Z,12.57
2017-11-03T12:22:51.331Z,13.85
2017-11-03T12:23:58.468Z,13.95
2017-11-03T12:25:04.918Z,12.95
2017-11-03T12:26:11.508Z,13.40
2017-11-03T12:27:19.044Z,12.90
2017-11-03T12:28:25.106Z,12.30
2017-11-03T12:29:30.816Z,12.93
2017-11-03T12:30:36.351Z,13.40
2017-11-03T12:31:42.340Z,12.80
2017-11-03T12:32:47.901Z,13.20
2017-11-03T12:33:53.680Z,13.60
2017-11-03T12:34:59.292Z,13.60
2017-11-03T12:36:04.942Z,13.13
2017-11-03T12:37:12.646Z,14.00
2017-11-03T12:38:18.127Z,14.30
2017-11-03T12:39:23.810Z,14.27
2017-11-03T12:40:29.319Z,13.80
2017-11-03T12:41:34.838Z,13.60
2017-11-03T12:42:40.694Z,13.50
2017-11-03T12:43:46.250Z,13.82
2017-11-03T12:44:51.889Z,16.52
2017-11-03T12:45:57.458Z,17.67
2017-11-03T12:47:02.922Z,15.60
2017-11-03T12:48:08.479Z,16.93
2017-11-03T12:49:14.062Z,15.27
2017-11-03T12:50:19.768Z,14.10
2017-11-03T12:51:25.339Z,13.93
2017-11-03T12:52:30.844Z,14.00
2017-11-03T12:53:36.342Z,14.40
2017-11-03T12:54:42.402Z,15.57
2017-11-03T12:55:47.932Z,16.40
2017-11-03T12:56:53.600Z,13.95
2017-11-03T12:57:59.067Z,13.73
2017-11-03T12:59:04.547Z,13.43
2017-11-03T13:00:10.456Z,14.43
2017-11-03T13:01:17.370Z,13.75
2017-11-03T13:02:22.981Z,13.82
2017-11-03T13:03:28.587Z,14.30
2017-11-03T13:04:35.099Z,16.67
2017-11-03T13:05:40.650Z,19.80
2017-11-03T13:06:46.292Z,16.42
2017-11-03T13:07:51.771Z,14.20
2017-11-03T13:08:57.275Z,13.88
2017-11-03T13:10:02.847Z,15.23
2017-11-03T13:11:09.436Z,14.35
2017-11-03T13:12:14.972Z,18.67
2017-11-03T13:13:20.471Z,15.82
2017-11-03T13:14:26.011Z,14.18
2017-11-03T13:15:31.540Z,13.65
2017-11-03T13:16:37.422Z,14.65
2017-11-03T13:17:43.175Z,14.45
2017-11-03T13:18:48.808Z,14.40
2017-11-03T13:19:54.359Z,13.75
2017-11-03T13:21:00.172Z,14.40
2017-11-03T13:22:06.211Z,14.27
2017-11-03T13:23:12.364Z,13.80
2017-11-03T13:24:17.922Z,14.25
2017-11-03T13:25:23.611Z,14.68
2017-11-03T13:26:29.271Z,37.38
2017-11-03T13:27:35.695Z,20.92
2017-11-03T13:28:41.547Z,13.93
2017-11-03T13:29:47.068Z,13.60
2017-11-03T13:30:52.924Z,13.93
2017-11-03T13:31:59.883Z,13.62
2017-11-03T13:33:05.602Z,12.98
2017-11-03T13:34:11.373Z,13.20
2017-11-03T13:35:17.028Z,13.00
2017-11-03T13:36:22.561Z,13.03
2017-11-03T13:37:28.086Z,13.93
2017-11-03T13:38:34.028Z,13.45
2017-11-03T13:39:39.651Z,12.82
2017-11-03T13:40:45.359Z,13.60
2017-11-03T13:41:51.001Z,13.75
2017-11-03T13:42:56.567Z,13.00
2017-11-03T13:44:02.174Z,13.45
2017-11-03T13:45:07.667Z,13.65
2017-11-03T13:46:13.179Z,13.50
2017-11-03T13:47:19.793Z,14.75
2017-11-03T13:48:25.404Z,14.77
2017-11-03T13:49:31.128Z,14.23
2017-11-03T13:50:36.707Z,13.40
2017-11-03T13:51:43.382Z,13.23
2017-11-03T13:52:48.979Z,14.23
2017-11-03T13:53:54.483Z,13.17
2017-11-03T13:55:00.018Z,14.20
2017-11-03T13:56:05.605Z,13.90
2017-11-03T13:57:11.109Z,13.87
2017-11-03T13:58:16.659Z,13.93
2017-11-03T13:59:22.179Z,13.10
2017-11-03T14:00:27.925Z,13.90
2017-11-03T14:01:33.635Z,14.60
2017-11-03T14:02:39.079Z,13.30
2017-11-03T14:03:44.634Z,13.82
2017-11-03T14:04:50.490Z,13.93
2017-11-03T14:05:56.153Z,14.68
2017-11-03T14:07:02.912Z,13.55
2017-11-03T14:08:08.478Z,14.32
2017-11-03T14:09:14.047Z,14.30
2017-11-03T14:10:19.620Z,14.70
2017-11-03T14:11:25.255Z,14.77